createdAt,value
2018-04-12T00:00:38.461Z,87.80
2018-04-12T00:03:13.592Z,88.00
2018-04-12T00:05:48.840Z,87.60
2018-04-12T00:08:23.940Z,87.60
2018-04-12T00:10:59.963Z,87.90
2018-04-12T00:13:35.073Z,87.90
2018-04-12T00:16:10.297Z,88.40
2018-04-12T00:18:45.659Z,88.90
2018-04-12T00:21:20.937Z,88.80
2018-04-12T00:23:56.264Z,89.30
2018-04-12T00:26:31.395Z,89.90
2018-04-12T00:29:07.432Z,90.50
2018-04-12T00:31:42.694Z,90.60
2018-04-12T00:34:17.993Z,90.30
2018-04-12T00:36:53.192Z,90.40
2018-04-12T00:39:28.704Z,90.50
2018-04-12T00:42:03.855Z,90.80
2018-04-12T00:44:39.780Z,91.80
2018-04-12T00:47:15.096Z,91.80
2018-04-12T00:49:50.345Z,92.10
2018-04-12T00:52:25.617Z,92.40
2018-04-12T00:55:00.803Z,92.50
2018-04-12T00:57:35.963Z,92.50
2018-04-12T01:00:11.356Z,92.50
2018-04-12T01:02:46.528Z,92.50
2018-04-12T01:05:21.824Z,92.40
2018-04-12T01:07:57.023Z,92.40
2018-04-12T01:10:32.270Z,92.30
2018-04-12T01:13:08.167Z,92.20
2018-04-12T01:15:43.514Z,92.20
2018-04-12T01:18:18.850Z,92.60
2018-04-12T01:20:53.972Z,92.50
2018-04-12T01:23:29.075Z,92.50
2018-04-12T01:26:04.330Z,93.00
2018-04-12T01:28:39.673Z,94.40
2018-04-12T01:31:14.753Z,93.90
2018-04-12T01:33:49.865Z,93.90
2018-04-12T01:36:25.063Z,94.10
2018-04-12T01:39:00.435Z,94.00
2018-04-12T01:41:35.677Z,94.90
2018-04-12T01:44:10.840Z,95.10
2018-04-12T01:46:46.075Z,95.60
2018-04-12T01:49:21.192Z,96.80
2018-04-12T01:51:57.118Z,96.60
2018-04-12T01:54:32.407Z,96.60
2018-04-12T01:57:07.750Z,97.10
2018-04-12T01:59:43.066Z,98.30
2018-04-12T02:02:18.412Z,98.40
2018-04-12T02:04:53.567Z,98.50
2018-04-12T02:07:30.038Z,99.00
2018-04-12T02:10:05.253Z,99.00
2018-04-12T02:12:40.529Z,99.00
2018-04-12T02:15:15.652Z,99.10
2018-04-12T02:17:50.774Z,99.00
2018-04-12T02:20:25.976Z,98.70
2018-04-12T02:23:01.120Z,98.00
2018-04-12T02:25:36.260Z,96.90
2018-04-12T02:28:11.441Z,96.30
2018-04-12T02:30:47.364Z,96.80
2018-04-12T02:33:22.659Z,96.90
2018-04-12T02:35:57.957Z,96.60
2018-04-12T02:38:33.256Z,95.20
2018-04-12T02:41:08.628Z,94.20
2018-04-12T02:43:43.940Z,94.30
2018-04-12T02:46:19.928Z,93.80
2018-04-12T02:48:55.945Z,95.20
2018-04-12T02:51:31.113Z,95.20
2018-04-12T02:54:06.312Z,95.10
2018-04-12T02:56:41.420Z,95.40
2018-04-12T02:59:17.385Z,95.90
2018-04-12T03:01:53.327Z,94.90
2018-04-12T03:04:29.220Z,95.20
2018-04-12T03:07:05.222Z,95.50
2018-04-12T03:09:40.405Z,95.50
2018-04-12T03:12:15.733Z,94.90
2018-04-12T03:14:50.893Z,94.70
2018-04-12T03:17:26.941Z,96.00
2018-04-12T03:20:02.176Z,96.10
2018-04-12T03:22:37.360Z,94.50
2018-04-12T03:25:12.698Z,94.70
2018-04-12T03:27:47.994Z,94.80
2018-04-12T03:30:23.104Z,94.40
2018-04-12T03:32:58.370Z,95.00
2018-04-12T03:35:34.251Z,95.50
2018-04-12T03:38:09.526Z,95.60
2018-04-12T03:40:44.905Z,95.70
2018-04-12T03:43:20.308Z,95.70
2018-04-12T03:45:56.358Z,95.00
2018-04-12T03:48:32.280Z,94.60
2018-04-12T03:51:07.560Z,94.70
2018-04-12T03:53:42.716Z,93.80
2018-04-12T03:56:18.799Z,93.90
2018-04-12T03:58:54.078Z,94.00
2018-04-12T04:01:29.415Z,93.50
2018-04-12T04:04:04.748Z,93.50
2018-04-12T04:06:39.883Z,93.80
2018-04-12T04:09:15.121Z,94.00
2018-04-12T04:11:51.013Z,93.60
2018-04-12T04:18:05.522Z,92.90
2018-04-12T04:20:57.587Z,92.80
2018-04-12T04:23:32.717Z,93.90
2018-04-12T04:26:07.868Z,94.20
2018-04-12T04:28:42.967Z,93.60
2018-04-12T04:31:18.265Z,93.70
2018-04-12T04:33:53.540Z,93.70
2018-04-12T04:36:29.526Z,94.30
2018-04-12T04:39:05.477Z,95.00
2018-04-12T04:41:40.661Z,95.00
2018-04-12T04:44:15.935Z,95.00
2018-04-12T04:46:51.057Z,94.20
2018-04-12T04:49:27.043Z,94.60
2018-04-12T04:52:02.205Z,94.70
2018-04-12T04:54:37.396Z,94.60
2018-04-12T04:57:12.706Z,95.00
2018-04-12T04:59:47.939Z,95.10
2018-04-12T05:02:23.992Z,94.60
2018-04-12T05:04:59.705Z,94.60
2018-04-12T05:07:34.872Z,95.30
2018-04-12T05:10:11.021Z,95.30
2018-04-12T05:12:46.368Z,94.50
2018-04-12T05:15:21.481Z,94.30
2018-04-12T05:17:56.653Z,93.50
2018-04-12T05:20:31.771Z,94.30
2018-04-12T05:23:06.968Z,94.10
2018-04-12T05:25:42.973Z,94.80
2018-04-12T05:28:18.335Z,94.80
2018-04-12T05:30:53.652Z,93.90
2018-04-12T05:33:28.851Z,93.40
2018-04-12T05:36:04.133Z,92.50
2018-04-12T05:38:39.256Z,91.80
2018-04-12T05:41:15.100Z,92.50
2018-04-12T05:43:51.089Z,91.80
2018-04-12T05:46:26.233Z,91.90
2018-04-12T05:49:01.416Z,91.90
2018-04-12T05:51:37.293Z,92.90
2018-04-12T05:54:12.491Z,93.00
2018-04-12T05:56:48.506Z,92.60
2018-04-12T05:59:23.823Z,92.40
2018-04-12T06:01:59.960Z,92.00
2018-04-12T06:04:35.302Z,91.90
2018-04-12T06:07:10.562Z,91.80
2018-04-12T06:09:45.800Z,91.70
2018-04-12T06:12:21.174Z,91.70
2018-04-12T06:14:56.527Z,92.70
2018-04-12T06:17:31.681Z,91.60
2018-04-12T06:20:06.840Z,92.50
2018-04-12T06:22:42.101Z,88.10
2018-04-12T06:25:17.316Z,85.30
2018-04-12T06:27:52.620Z,82.20
2018-04-12T06:30:29.062Z,79.30
2018-04-12T06:33:05.039Z,77.40
2018-04-12T06:35:40.342Z,77.50
2018-04-12T06:38:15.570Z,76.70
2018-04-12T06:40:51.593Z,74.10
2018-04-12T06:43:26.716Z,73.20
2018-04-12T06:46:01.985Z,71.50
2018-04-12T06:48:37.084Z,72.30
2018-04-12T06:51:12.355Z,70.40
2018-04-12T06:53:47.525Z,70.50
2018-04-12T06:56:22.684Z,69.50
2018-04-12T06:58:57.950Z,67.30
2018-04-12T07:01:33.116Z,66.30
2018-04-12T07:04:09.170Z,64.40
2018-04-12T07:06:44.445Z,64.40
2018-04-12T07:09:19.641Z,62.70
2018-04-12T07:11:55.640Z,61.00
2018-04-12T07:14:31.541Z,60.30
2018-04-12T07:17:06.610Z,60.30
2018-04-12T07:19:42.509Z,59.00
2018-04-12T07:22:18.477Z,58.80
2018-04-12T07:24:53.600Z,58.80
2018-04-12T07:27:28.917Z,58.80
2018-04-12T07:30:04.800Z,61.00
2018-04-12T07:32:39.964Z,61.00
2018-04-12T07:35:15.347Z,60.30
2018-04-12T07:37:50.605Z,59.30
2018-04-12T07:40:26.684Z,56.80
2018-04-12T07:43:02.619Z,54.70
2018-04-12T07:45:37.767Z,54.70
2018-04-12T07:48:13.050Z,54.10
2018-04-12T07:50:48.253Z,51.60
2018-04-12T07:53:24.081Z,49.20
2018-04-12T07:55:59.248Z,49.10
2018-04-12T07:58:34.520Z,49.10
2018-04-12T08:01:10.528Z,47.10
2018-04-12T08:03:46.469Z,44.60
2018-04-12T08:06:21.834Z,44.60
2018-04-12T08:08:56.924Z,45.30
2018-04-12T08:11:32.181Z,44.20
2018-04-12T08:14:07.488Z,44.70
2018-04-12T08:16:42.799Z,44.00
2018-04-12T08:19:18.104Z,45.00
2018-04-12T08:21:54.115Z,43.30
2018-04-12T08:24:29.239Z,43.30
2018-04-12T08:27:05.187Z,42.20
2018-04-12T08:29:41.126Z,41.40
2018-04-12T08:32:16.255Z,41.40
2018-04-12T08:34:51.494Z,41.50
2018-04-12T08:37:26.756Z,41.50
2018-04-12T08:40:01.867Z,42.00
2018-04-12T08:42:37.167Z,42.20
2018-04-12T08:45:12.336Z,41.90
2018-04-12T08:47:47.539Z,41.20
2018-04-12T08:50:23.483Z,38.90
2018-04-12T08:52:59.445Z,38.50
2018-04-12T08:55:35.471Z,38.50
2018-04-12T08:58:10.701Z,39.80
2018-04-12T09:00:45.926Z,38.60
2018-04-12T09:03:21.143Z,38.60
2018-04-12T09:05:57.033Z,38.20
2018-04-12T09:08:32.159Z,38.10
2018-04-12T09:11:08.028Z,37.00
2018-04-12T09:13:43.148Z,37.00
2018-04-12T09:16:18.431Z,35.00
2018-04-12T09:18:54.282Z,31.80
2018-04-12T09:21:29.499Z,32.30
2018-04-12T09:24:04.707Z,31.10
2018-04-12T09:26:40.793Z,29.50
2018-04-12T09:29:16.038Z,29.50
2018-04-12T09:31:51.164Z,30.40
2018-04-12T09:34:26.535Z,31.40
2018-04-12T09:37:03.716Z,30.90
2018-04-12T09:39:39.052Z,31.60
2018-04-12T09:42:15.187Z,32.90
2018-04-12T09:44:51.051Z,32.50
2018-04-12T09:47:26.286Z,32.40
2018-04-12T09:50:02.211Z,30.40
2018-04-12T09:52:38.166Z,29.60
2018-04-12T09:55:14.031Z,30.70
2018-04-12T09:57:49.236Z,30.70
2018-04-12T10:00:27.160Z,31.70
2018-04-12T10:03:03.106Z,32.70
2018-04-12T10:05:38.897Z,34.20
2018-04-12T10:08:19.825Z,33.50
2018-04-12T10:10:55.782Z,33.80
2018-04-12T10:13:30.980Z,33.70
2018-04-12T10:16:06.087Z,34.20
2018-04-12T10:18:41.350Z,33.40
2018-04-12T10:21:16.460Z,33.60
2018-04-12T10:23:51.720Z,34.20
2018-04-12T10:26:27.686Z,32.70
2018-04-12T10:29:02.804Z,32.70
2018-04-12T10:31:38.021Z,33.40
2018-04-12T10:34:13.308Z,32.50
2018-04-12T10:36:49.142Z,32.60
2018-04-12T10:39:25.006Z,32.60
2018-04-12T10:42:00.309Z,32.60
2018-04-12T10:44:35.670Z,33.20
2018-04-12T10:47:10.892Z,32.40
2018-04-12T10:49:46.940Z,32.70
2018-04-12T10:52:22.832Z,32.90
2018-04-12T10:54:58.788Z,31.40
2018-04-12T10:57:33.991Z,31.40
2018-04-12T11:00:09.304Z,31.40
2018-04-12T11:02:44.492Z,31.40
2018-04-12T11:05:19.733Z,32.30
2018-04-12T11:07:55.728Z,32.40
2018-04-12T11:10:30.904Z,32.40
2018-04-12T11:13:06.887Z,33.50
2018-04-12T11:15:42.019Z,32.80
2018-04-12T11:18:17.365Z,33.20
2018-04-12T11:20:52.483Z,32.90
2018-04-12T11:23:27.655Z,34.00
2018-04-12T11:26:03.501Z,31.50
2018-04-12T11:28:38.676Z,31.40
2018-04-12T11:31:13.882Z,31.30
2018-04-12T11:33:49.204Z,32.00
2018-04-12T11:36:24.589Z,32.60
2018-04-12T11:38:59.855Z,30.70
2018-04-12T11:41:35.764Z,32.60
2018-04-12T11:44:10.983Z,32.60
2018-04-12T11:46:46.320Z,32.90
2018-04-12T11:49:22.184Z,30.90
2018-04-12T11:51:57.400Z,30.90
2018-04-12T11:54:32.639Z,32.10
2018-04-12T11:57:07.907Z,31.20
2018-04-12T11:59:43.153Z,30.40
2018-04-12T12:02:18.411Z,30.90
2018-04-12T12:04:53.748Z,31.80
2018-04-12T12:07:29.071Z,33.50
2018-04-12T12:10:04.363Z,34.80
2018-04-12T12:12:39.497Z,35.10
2018-04-12T12:15:15.469Z,34.30
2018-04-12T12:17:50.591Z,34.30
2018-04-12T12:20:25.869Z,35.70
2018-04-12T12:23:01.948Z,36.40
2018-04-12T12:25:37.877Z,35.20
2018-04-12T12:28:13.883Z,34.40
2018-04-12T12:30:49.015Z,34.40
2018-04-12T12:33:24.257Z,35.00
2018-04-12T12:35:59.629Z,34.70
2018-04-12T12:38:35.666Z,34.00
2018-04-12T12:41:10.814Z,34.10
2018-04-12T12:43:45.951Z,34.40
2018-04-12T12:46:21.013Z,34.80
2018-04-12T12:48:56.195Z,35.00
2018-04-12T12:51:32.130Z,34.30
2018-04-12T12:54:07.588Z,34.30
2018-04-12T12:56:42.757Z,35.70
2018-04-12T12:59:18.047Z,35.70
2018-04-12T13:01:53.293Z,36.70
2018-04-12T13:04:28.664Z,36.40
2018-04-12T13:07:04.613Z,37.60
2018-04-12T13:09:40.590Z,37.20
2018-04-12T13:12:15.784Z,37.20
2018-04-12T13:14:50.917Z,35.90
2018-04-12T13:17:26.284Z,35.80
2018-04-12T13:20:01.706Z,36.20
2018-04-12T13:22:37.597Z,35.70
2018-04-12T13:25:13.695Z,35.50
2018-04-12T13:27:48.955Z,35.50
2018-04-12T13:30:24.957Z,36.20
2018-04-12T13:33:00.248Z,36.20
2018-04-12T13:35:35.616Z,35.40
2018-04-12T13:38:11.612Z,33.40
2018-04-12T13:40:46.771Z,33.30
2018-04-12T13:43:22.053Z,33.70
2018-04-12T13:45:57.963Z,33.60
2018-04-12T13:48:33.240Z,33.60
2018-04-12T13:51:08.493Z,32.20
2018-04-12T13:53:43.586Z,33.20
2018-04-12T13:56:18.854Z,33.70
2018-04-12T13:58:54.077Z,34.50
2018-04-12T14:01:29.361Z,34.20
2018-04-12T14:04:04.671Z,34.90
2018-04-12T14:06:40.544Z,36.20
2018-04-12T14:09:15.734Z,36.20
2018-04-12T14:11:51.060Z,36.60
2018-04-12T14:14:26.318Z,37.10
2018-04-12T14:17:01.654Z,37.30
2018-04-12T14:19:36.990Z,37.20
2018-04-12T14:22:12.198Z,37.40
2018-04-12T14:24:47.497Z,37.60
2018-04-12T14:27:23.377Z,36.80
2018-04-12T14:29:58.480Z,36.80
2018-04-12T14:32:33.747Z,36.50
2018-04-12T14:35:09.784Z,36.10
2018-04-12T14:37:44.934Z,35.90
2018-04-12T14:40:20.260Z,36.70
2018-04-12T14:42:55.640Z,36.10
2018-04-12T14:45:30.828Z,36.40
2018-04-12T14:48:06.077Z,35.00
2018-04-12T14:50:41.374Z,35.60
2018-04-12T14:53:16.660Z,35.90
2018-04-12T14:55:51.920Z,36.30
2018-04-12T14:58:27.261Z,35.50
2018-04-12T15:01:02.530Z,34.90
2018-04-12T15:03:38.498Z,35.90
2018-04-12T15:06:13.709Z,35.90
2018-04-12T15:08:49.045Z,35.10
2018-04-12T15:11:24.393Z,34.20
2018-04-12T15:13:59.711Z,34.30
2018-04-12T15:16:34.852Z,33.90
2018-04-12T15:19:10.103Z,32.90
2018-04-12T15:21:46.180Z,33.90
2018-04-12T15:24:21.325Z,33.90
2018-04-12T15:26:56.420Z,33.50
2018-04-12T15:29:31.694Z,35.50
2018-04-12T15:32:07.151Z,35.50
2018-04-12T15:34:42.996Z,35.30
2018-04-12T15:37:18.272Z,35.30
2018-04-12T15:39:53.372Z,35.30
2018-04-12T15:42:28.580Z,32.90
2018-04-12T15:45:03.750Z,32.70
2018-04-12T15:47:38.956Z,32.10
2018-04-12T15:50:14.960Z,33.70
2018-04-12T15:52:50.045Z,33.70
2018-04-12T15:55:25.420Z,32.70
2018-04-12T15:58:00.738Z,31.00
2018-04-12T16:00:36.183Z,30.70
2018-04-12T16:03:11.276Z,31.00
2018-04-12T16:05:47.249Z,32.90
2018-04-12T16:08:22.361Z,32.90
2018-04-12T16:10:57.691Z,32.90
2018-04-12T16:13:32.773Z,32.90
2018-04-12T16:16:08.255Z,33.20
2018-04-12T16:18:43.578Z,32.20
2018-04-12T16:21:19.581Z,32.00
2018-04-12T16:23:55.492Z,32.50
2018-04-12T16:26:30.836Z,32.50
2018-04-12T16:29:06.160Z,33.30
2018-04-12T16:31:41.503Z,33.60
2018-04-12T16:34:17.451Z,34.00
2018-04-12T16:36:52.919Z,34.00
2018-04-12T16:39:28.870Z,36.40
2018-04-12T16:42:04.040Z,36.40
2018-04-12T16:44:39.331Z,36.70
2018-04-12T16:47:14.647Z,37.80
2018-04-12T16:49:49.833Z,38.40
2018-04-12T16:52:25.081Z,38.70
2018-04-12T16:55:00.282Z,39.00
2018-04-12T16:57:35.670Z,39.40
2018-04-12T17:00:10.961Z,39.90
2018-04-12T17:02:46.236Z,39.80
2018-04-12T17:05:21.528Z,39.30
2018-04-12T17:07:56.597Z,39.50
2018-04-12T17:10:31.837Z,40.30
2018-04-12T17:13:07.169Z,40.10
2018-04-12T17:15:42.402Z,41.10
2018-04-12T17:18:17.765Z,41.00
2018-04-12T17:20:53.108Z,40.70
2018-04-12T17:23:28.997Z,40.30
2018-04-12T17:26:04.196Z,40.30
2018-04-12T17:28:39.654Z,40.80
2018-04-12T17:31:14.884Z,40.40
2018-04-12T17:33:49.997Z,39.70
2018-04-12T17:36:25.269Z,40.10
2018-04-12T17:39:01.242Z,40.30
2018-04-12T17:41:37.184Z,40.20
2018-04-12T17:44:13.143Z,39.70
2018-04-12T17:46:50.030Z,40.20
2018-04-12T17:49:26.184Z,40.20
2018-04-12T17:52:01.317Z,40.90
2018-04-12T17:54:37.323Z,41.80
2018-04-12T17:57:12.611Z,41.20
2018-04-12T17:59:47.826Z,41.30
2018-04-12T18:02:23.915Z,41.50
2018-04-12T18:04:59.444Z,41.50
2018-04-12T18:07:34.856Z,42.60
2018-04-12T18:10:10.086Z,43.60
2018-04-12T18:12:46.101Z,43.60
2018-04-12T18:15:21.952Z,43.60
2018-04-12T18:17:57.824Z,45.60
2018-04-12T18:20:33.158Z,45.60
2018-04-12T18:23:08.491Z,47.10
2018-04-12T18:25:43.748Z,46.70
2018-04-12T18:28:19.165Z,46.50
2018-04-12T18:30:54.615Z,45.50
2018-04-12T18:33:29.974Z,46.70
2018-04-12T18:36:05.101Z,47.00
2018-04-12T18:38:40.266Z,47.60
2018-04-12T18:41:15.611Z,47.60
2018-04-12T18:43:50.718Z,48.10
2018-04-12T18:46:25.959Z,50.70
2018-04-12T18:49:02.835Z,50.20
2018-04-12T18:51:38.395Z,50.20
2018-04-12T18:54:14.381Z,50.50
2018-04-12T18:56:49.540Z,50.50
2018-04-12T18:59:25.500Z,51.00
2018-04-12T19:02:00.810Z,51.00
2018-04-12T19:04:36.002Z,51.20
2018-04-12T19:07:11.258Z,51.30
2018-04-12T19:09:46.560Z,51.50
2018-04-12T19:12:21.843Z,51.50
2018-04-12T19:14:57.832Z,52.80
2018-04-12T19:17:33.121Z,52.80
2018-04-12T19:20:08.389Z,53.40
2018-04-12T19:22:43.539Z,53.40
2018-04-12T19:25:18.804Z,54.20
2018-04-12T19:27:53.918Z,55.40
2018-04-12T19:30:29.994Z,55.00
2018-04-12T19:33:05.136Z,55.00
2018-04-12T19:35:41.027Z,56.90
2018-04-12T19:38:16.926Z,56.60
2018-04-12T19:40:52.040Z,56.60
2018-04-12T19:43:27.438Z,55.70
2018-04-12T19:46:02.592Z,55.70
2018-04-12T19:48:37.894Z,57.40
2018-04-12T19:51:13.866Z,56.30
2018-04-12T19:53:49.215Z,56.20
2018-04-12T19:56:24.425Z,56.00
2018-04-12T19:59:00.425Z,57.30
2018-04-12T20:01:36.389Z,56.50
2018-04-12T20:04:11.592Z,56.60
2018-04-12T20:06:47.577Z,60.60
2018-04-12T20:09:23.497Z,60.00
2018-04-12T20:11:58.628Z,59.90
2018-04-12T20:14:34.015Z,58.90
2018-04-12T20:17:09.366Z,56.40
2018-04-12T20:19:45.217Z,58.30
2018-04-12T20:22:20.400Z,58.30
2018-04-12T20:24:55.716Z,58.00
2018-04-12T20:27:31.159Z,57.00
2018-04-12T20:30:07.272Z,57.70
2018-04-12T20:32:43.149Z,56.80
2018-04-12T20:35:18.597Z,56.80
2018-04-12T20:37:53.740Z,57.40
2018-04-12T20:40:29.694Z,57.60
2018-04-12T20:43:05.717Z,58.10
2018-04-12T20:45:41.748Z,57.90
2018-04-12T20:48:17.028Z,57.80
2018-04-12T20:50:52.949Z,57.90
2018-04-12T20:53:28.041Z,58.00
2018-04-12T20:56:04.045Z,57.90
2018-04-12T20:58:39.277Z,57.90
2018-04-12T21:01:14.492Z,57.70
2018-04-12T21:03:49.719Z,57.60
2018-04-12T21:06:25.597Z,62.90
2018-04-12T21:09:00.689Z,62.80
2018-04-12T21:11:36.590Z,63.40
2018-04-12T21:14:12.536Z,63.70
2018-04-12T21:16:48.522Z,64.40
2018-04-12T21:19:23.777Z,64.40
2018-04-12T21:21:58.973Z,65.20
2018-04-12T21:24:34.199Z,64.50
2018-04-12T21:27:10.361Z,64.90
2018-04-12T21:29:46.189Z,65.90
2018-04-12T21:32:21.427Z,65.90
2018-04-12T21:34:56.625Z,65.70
2018-04-12T21:37:31.966Z,67.00
2018-04-12T21:40:07.069Z,66.40
2018-04-12T21:42:42.351Z,67.00
2018-04-12T21:45:17.541Z,67.00
2018-04-12T21:47:52.867Z,67.10
2018-04-12T21:50:28.734Z,66.90
2018-04-12T21:53:03.876Z,66.80
2018-04-12T21:55:39.090Z,66.60
2018-04-12T21:58:14.253Z,66.50
2018-04-12T22:00:50.316Z,69.30
2018-04-12T22:03:26.300Z,71.00
2018-04-12T22:06:01.398Z,71.00
2018-04-12T22:08:36.647Z,71.30
2018-04-12T22:11:11.911Z,70.80
2018-04-12T22:13:47.150Z,72.00
2018-04-12T22:16:22.435Z,70.90
2018-04-12T22:18:57.815Z,73.00
2018-04-12T22:21:33.257Z,70.10
2018-04-12T22:24:08.596Z,69.80
2018-04-12T22:26:43.919Z,69.10
2018-04-12T22:29:19.192Z,69.60
2018-04-12T22:31:54.451Z,68.70
2018-04-12T22:34:29.719Z,69.60
2018-04-12T22:37:05.035Z,70.60
2018-04-12T22:39:40.326Z,70.90
2018-04-12T22:42:15.681Z,72.90
2018-04-12T22:44:51.576Z,71.80
2018-04-12T22:47:26.888Z,71.80
2018-04-12T22:50:02.924Z,71.50
2018-04-12T22:52:39.040Z,69.90
2018-04-12T22:55:15.115Z,73.00
2018-04-12T22:57:50.456Z,73.60
2018-04-12T23:00:25.599Z,71.40
2018-04-12T23:03:01.573Z,73.50
2018-04-12T23:05:36.713Z,73.50
2018-04-12T23:08:11.939Z,72.40
2018-04-12T23:10:48.142Z,71.30
2018-04-12T23:13:24.166Z,70.40
2018-04-12T23:15:59.402Z,71.10
2018-04-12T23:18:34.634Z,71.10
2018-04-12T23:21:09.813Z,71.10
2018-04-12T23:23:45.121Z,70.70
2018-04-12T23:26:21.089Z,70.20
2018-04-12T23:28:56.680Z,69.70
2018-04-12T23:31:31.973Z,69.60
2018-04-12T23:34:07.936Z,68.80
2018-04-12T23:36:43.089Z,68.80
2018-04-12T23:39:18.187Z,68.50
2018-04-12T23:41:53.552Z,68.00
2018-04-12T23:44:28.814Z,67.50
2018-04-12T23:47:04.098Z,66.90
2018-04-12T23:49:39.365Z,66.60
2018-04-12T23:52:15.340Z,65.40
2018-04-12T23:54:51.400Z,65.40
2018-04-12T23:57:26.623Z,64.90
